Terminal Aerodrome Forecast
Issued by NWS Caribou, ME

Home | Current Version | Previous Version | Text Only | Print | Product List | Glossary On
Versions: 1 2 3 4 5 6 7 8 9 10 11 12 13 14 15 16 17 18 19 20
401
FTUS41 KCAR 061755
TAFBGR
TAF
KBGR 061755Z 0618/0718 22008KT P6SM SCT120
     FM071400 26009KT P6SM SCT250
     FM071700 29008KT 6SM -SHSN BKN030=

USA.gov is the U.S. government's official web portal to all federal, state and local government web resources and services.